createdAt,value
2023-01-23T00:02:27.259Z,58.40
2023-01-23T00:04:57.299Z,61.33
2023-01-23T00:07:27.203Z,60.05
2023-01-23T00:09:57.250Z,59.05
2023-01-23T00:12:27.811Z,60.70
2023-01-23T00:14:57.870Z,59.47
2023-01-23T00:17:31.837Z,59.05
2023-01-23T00:20:02.519Z,64.03
2023-01-23T00:22:33.217Z,62.07
2023-01-23T00:25:03.038Z,62.43
2023-01-23T00:27:33.228Z,58.97
2023-01-23T00:30:03.415Z,63.83
2023-01-23T00:32:33.515Z,62.45
2023-01-23T00:35:06.308Z,62.47
2023-01-23T00:37:36.385Z,63.53
2023-01-23T00:40:06.530Z,65.10
2023-01-23T00:42:36.534Z,65.07
2023-01-23T00:45:06.718Z,64.05
2023-01-23T00:47:36.578Z,66.10
2023-01-23T00:50:06.707Z,65.63
2023-01-23T00:52:36.579Z,65.63
2023-01-23T00:55:07.522Z,70.60
2023-01-23T00:57:37.561Z,67.53
2023-01-23T01:00:07.961Z,67.00
2023-01-23T01:02:38.187Z,66.07
2023-01-23T01:05:08.997Z,64.55
2023-01-23T01:07:39.185Z,63.40
2023-01-23T01:10:09.341Z,62.72
2023-01-23T01:12:40.699Z,60.72
2023-01-23T01:15:12.097Z,63.03
2023-01-23T01:20:13.217Z,62.33
2023-01-23T01:22:43.266Z,63.63
2023-01-23T01:25:13.449Z,60.20
2023-01-23T01:27:43.649Z,62.13
2023-01-23T01:30:15.647Z,62.85
2023-01-23T01:32:46.117Z,63.75
2023-01-23T01:35:16.892Z,63.97
2023-01-23T01:37:46.852Z,60.38
2023-01-23T01:40:31.095Z,62.67
2023-01-23T01:43:04.713Z,58.08
2023-01-23T01:46:05.540Z,62.88
2023-01-23T01:48:50.605Z,61.47
2023-01-23T01:51:20.681Z,60.17
2023-01-23T01:53:57.933Z,62.15
2023-01-23T01:56:30.251Z,59.15
2023-01-23T01:59:03.014Z,59.97
2023-01-23T02:01:33.494Z,58.65
2023-01-23T02:04:07.719Z,59.55
2023-01-23T02:06:37.925Z,58.65
2023-01-23T02:09:12.541Z,57.83
2023-01-23T02:11:42.977Z,59.72
2023-01-23T02:14:14.398Z,55.20
2023-01-23T02:16:52.425Z,59.45
2023-01-23T02:19:50.135Z,59.28
2023-01-23T02:22:52.614Z,63.45
2023-01-23T02:25:29.532Z,60.50
2023-01-23T02:27:59.949Z,58.15
2023-01-23T02:30:32.196Z,58.35
2023-01-23T02:33:15.149Z,57.53
2023-01-23T02:35:45.496Z,58.20
2023-01-23T02:38:17.109Z,55.83
2023-01-23T02:40:47.410Z,54.00
2023-01-23T02:43:28.379Z,55.25
2023-01-23T02:46:13.203Z,52.03
2023-01-23T02:48:43.463Z,53.25
2023-01-23T02:51:13.815Z,53.53
2023-01-23T02:53:44.754Z,53.17
2023-01-23T02:56:14.948Z,50.78
2023-01-23T02:59:04.377Z,50.35
2023-01-23T03:01:38.010Z,51.17
2023-01-23T03:04:08.727Z,49.83
2023-01-23T03:06:39.963Z,51.80
2023-01-23T03:09:14.940Z,49.70
2023-01-23T03:11:47.101Z,50.97
2023-01-23T03:14:22.668Z,48.67
2023-01-23T03:16:54.883Z,47.58
2023-01-23T03:19:31.889Z,46.33
2023-01-23T03:22:02.213Z,48.70
2023-01-23T03:24:32.271Z,47.40
2023-01-23T03:27:02.380Z,48.47
2023-01-23T03:29:56.947Z,46.75
2023-01-23T03:32:28.340Z,46.72
2023-01-23T03:35:00.264Z,46.53
2023-01-23T03:37:30.772Z,45.40
2023-01-23T03:40:20.134Z,45.80
2023-01-23T03:42:50.569Z,43.75
2023-01-23T03:45:27.526Z,46.40
2023-01-23T03:47:57.677Z,44.70
2023-01-23T03:50:27.877Z,43.25
2023-01-23T03:52:58.002Z,43.03
2023-01-23T03:55:28.615Z,43.37
2023-01-23T03:57:58.704Z,42.55
2023-01-23T04:00:33.925Z,43.53
2023-01-23T04:03:08.305Z,42.08
2023-01-23T04:05:40.595Z,43.67
2023-01-23T04:08:10.740Z,42.63
2023-01-23T04:10:40.628Z,41.47
2023-01-23T04:13:16.857Z,40.45
2023-01-23T04:15:47.626Z,41.35
2023-01-23T04:18:18.820Z,39.63
2023-01-23T04:20:48.832Z,38.95
2023-01-23T04:23:19.568Z,38.30
2023-01-23T04:25:50.097Z,38.75
2023-01-23T04:28:20.843Z,38.90
2023-01-23T04:30:53.850Z,36.08
2023-01-23T04:33:31.084Z,36.90
2023-01-23T04:36:04.045Z,36.88
2023-01-23T04:38:36.184Z,35.58
2023-01-23T04:41:28.242Z,35.03
2023-01-23T04:44:22.123Z,34.60
2023-01-23T04:47:12.097Z,29.42
2023-01-23T04:49:42.956Z,33.27
2023-01-23T04:52:13.269Z,30.42
2023-01-23T04:54:47.917Z,32.03
2023-01-23T04:57:18.275Z,30.27
2023-01-23T04:59:48.684Z,28.83
2023-01-23T05:02:18.943Z,29.50
2023-01-23T05:04:49.198Z,28.17
2023-01-23T05:07:19.408Z,27.73
2023-01-23T05:10:05.480Z,27.42
2023-01-23T05:12:36.599Z,26.30
2023-01-23T05:15:08.471Z,27.10
2023-01-23T05:17:41.128Z,24.83
2023-01-23T05:20:12.763Z,24.38
2023-01-23T05:22:54.398Z,23.90
2023-01-23T05:25:32.608Z,23.38
2023-01-23T05:28:04.796Z,22.48
2023-01-23T05:30:37.243Z,20.85
2023-01-23T05:33:20.427Z,22.83
2023-01-23T05:35:50.812Z,20.30
2023-01-23T05:38:21.655Z,20.88
2023-01-23T05:40:51.951Z,20.10
2023-01-23T05:43:41.410Z,19.65
2023-01-23T05:46:29.735Z,20.80
2023-01-23T05:48:59.939Z,19.15
2023-01-23T05:51:34.620Z,17.85
2023-01-23T05:54:05.698Z,19.35
2023-01-23T05:56:37.223Z,16.55
2023-01-23T05:59:25.824Z,16.98
2023-01-23T06:02:17.247Z,17.17
2023-01-23T06:05:06.058Z,16.60
2023-01-23T06:07:54.224Z,16.15
2023-01-23T06:10:24.438Z,15.60
2023-01-23T06:12:54.952Z,15.32
2023-01-23T06:15:25.359Z,16.33
2023-01-23T06:17:57.864Z,14.70
2023-01-23T06:20:29.002Z,14.45
2023-01-23T06:22:59.809Z,14.30
2023-01-23T06:25:31.172Z,14.25
2023-01-23T06:28:04.386Z,13.57
2023-01-23T06:30:37.122Z,13.32
2023-01-23T06:33:12.812Z,13.02
2023-01-23T06:35:44.752Z,12.85
2023-01-23T06:38:14.850Z,13.15
2023-01-23T06:40:46.939Z,12.47
2023-01-23T06:43:31.198Z,11.73
2023-01-23T06:46:01.778Z,12.23
2023-01-23T06:51:03.539Z,10.38
2023-01-23T06:56:07.337Z,11.13
2023-01-23T06:58:41.047Z,11.18
2023-01-23T07:01:21.566Z,10.85
2023-01-23T07:04:11.775Z,11.15
2023-01-23T07:06:43.570Z,10.88
2023-01-23T07:09:16.369Z,10.23
2023-01-23T07:11:52.948Z,9.93
2023-01-23T07:14:24.012Z,9.68
2023-01-23T07:16:57.896Z,10.13
2023-01-23T07:19:29.036Z,9.43
2023-01-23T07:22:03.345Z,10.30
2023-01-23T07:24:35.317Z,10.07
2023-01-23T07:27:05.611Z,10.20
2023-01-23T07:29:35.968Z,10.15
2023-01-23T07:32:06.092Z,10.25
2023-01-23T07:34:36.298Z,9.93
2023-01-23T07:37:06.378Z,9.02
2023-01-23T07:39:36.333Z,10.15
2023-01-23T07:42:06.373Z,10.00
2023-01-23T07:44:36.315Z,9.93
2023-01-23T07:47:06.197Z,10.73
2023-01-23T07:49:36.127Z,10.55
2023-01-23T07:52:07.127Z,10.60
2023-01-23T07:54:37.199Z,11.10
2023-01-23T07:57:07.213Z,11.48
2023-01-23T07:59:37.099Z,11.35
2023-01-23T08:02:07.001Z,11.63
2023-01-23T08:04:37.009Z,10.75
2023-01-23T08:07:07.145Z,10.35
2023-01-23T08:09:37.107Z,11.10
2023-01-23T08:12:21.582Z,10.88
2023-01-23T08:14:51.684Z,10.93
2023-01-23T08:17:21.644Z,10.95
2023-01-23T08:19:51.906Z,11.00
2023-01-23T08:22:22.018Z,11.18
2023-01-23T08:24:51.901Z,12.23
2023-01-23T08:27:21.914Z,11.32
2023-01-23T08:29:51.922Z,10.90
2023-01-23T08:32:21.971Z,11.18
2023-01-23T08:34:51.870Z,11.68
2023-01-23T08:37:21.837Z,11.60
2023-01-23T08:39:51.704Z,10.43
2023-01-23T08:42:22.047Z,10.88
2023-01-23T08:44:51.951Z,10.60
2023-01-23T08:47:21.753Z,10.65
2023-01-23T08:49:51.745Z,11.27
2023-01-23T08:52:21.903Z,11.13
2023-01-23T08:54:52.003Z,11.35
2023-01-23T08:57:22.000Z,11.23
2023-01-23T08:59:51.807Z,10.00
2023-01-23T09:02:21.794Z,10.07
2023-01-23T09:04:52.575Z,10.50
2023-01-23T09:07:22.631Z,10.50
2023-01-23T09:09:52.836Z,10.35
2023-01-23T09:12:23.000Z,10.50
2023-01-23T09:14:53.096Z,10.38
2023-01-23T09:17:23.102Z,10.38
2023-01-23T09:19:52.983Z,10.15
2023-01-23T09:22:23.014Z,10.43
2023-01-23T09:24:53.026Z,9.80
2023-01-23T09:27:23.388Z,9.68
2023-01-23T09:29:53.812Z,10.35
2023-01-23T09:32:23.892Z,10.45
2023-01-23T09:34:53.811Z,9.85
2023-01-23T09:37:23.719Z,10.38
2023-01-23T09:39:53.649Z,10.15
2023-01-23T09:42:27.905Z,10.20
2023-01-23T09:45:04.233Z,10.68
2023-01-23T09:48:20.285Z,10.10
2023-01-23T09:51:07.947Z,9.90
2023-01-23T09:53:42.234Z,10.35
2023-01-23T09:56:41.012Z,9.93
2023-01-23T09:59:27.077Z,9.95
2023-01-23T10:01:57.199Z,9.45
2023-01-23T10:04:27.186Z,9.50
2023-01-23T10:07:22.558Z,9.50
2023-01-23T10:09:55.423Z,10.13
2023-01-23T10:12:54.185Z,9.23
2023-01-23T10:16:04.566Z,9.63
2023-01-23T10:18:40.022Z,10.10
2023-01-23T10:21:37.354Z,10.00
2023-01-23T10:24:16.476Z,9.57
2023-01-23T10:26:48.862Z,9.27
2023-01-23T10:29:37.252Z,9.75
2023-01-23T10:32:18.896Z,9.43
2023-01-23T10:35:02.673Z,10.13
2023-01-23T10:38:14.766Z,9.82
2023-01-23T10:43:33.171Z,9.82
2023-01-23T10:46:03.184Z,9.52
2023-01-23T10:48:52.596Z,9.70
2023-01-23T10:51:33.588Z,10.05
2023-01-23T10:54:31.757Z,9.30
2023-01-23T10:57:24.160Z,9.63
2023-01-23T11:00:07.829Z,10.00
2023-01-23T11:02:42.770Z,9.80
2023-01-23T11:05:51.627Z,9.63
2023-01-23T11:08:35.763Z,9.27
2023-01-23T11:11:25.665Z,9.90
2023-01-23T11:14:24.895Z,10.38
2023-01-23T11:17:35.303Z,10.50
2023-01-23T11:20:34.018Z,10.73
2023-01-23T11:23:10.829Z,11.30
2023-01-23T11:25:42.195Z,12.40
2023-01-23T11:28:50.480Z,12.07
2023-01-23T11:31:25.239Z,10.75
2023-01-23T11:33:59.467Z,11.27
2023-01-23T11:36:39.672Z,12.27
2023-01-23T11:39:18.960Z,12.48
2023-01-23T11:41:49.302Z,14.20
2023-01-23T11:44:25.558Z,13.73
2023-01-23T11:47:29.916Z,14.60
2023-01-23T11:50:16.593Z,14.45
2023-01-23T11:52:55.688Z,14.20
2023-01-23T11:55:35.088Z,15.65
2023-01-23T11:58:27.163Z,14.98
2023-01-23T12:01:23.471Z,16.48
2023-01-23T12:04:22.298Z,16.60
2023-01-23T12:06:58.827Z,15.13
2023-01-23T12:09:52.359Z,17.05
2023-01-23T12:12:48.361Z,16.75
2023-01-23T12:15:43.670Z,15.60
2023-01-23T12:18:51.293Z,17.08
2023-01-23T12:21:30.035Z,17.50
2023-01-23T12:24:18.136Z,17.52
2023-01-23T12:27:02.996Z,18.08
2023-01-23T12:29:50.996Z,17.98
2023-01-23T12:32:53.033Z,19.08
2023-01-23T12:35:36.863Z,18.95
2023-01-23T12:38:29.998Z,19.35
2023-01-23T12:41:14.686Z,19.42
2023-01-23T12:44:32.487Z,19.30
2023-01-23T12:47:09.127Z,19.17
2023-01-23T12:50:21.364Z,20.27
2023-01-23T12:56:21.931Z,26.65
2023-01-23T12:59:29.253Z,21.73
2023-01-23T13:02:22.113Z,24.55
2023-01-23T13:05:16.096Z,25.25
2023-01-23T13:07:58.467Z,28.63
2023-01-23T13:10:28.789Z,27.35
2023-01-23T13:12:59.570Z,26.25
2023-01-23T13:15:40.673Z,25.98
2023-01-23T13:18:27.551Z,24.77
2023-01-23T13:21:20.704Z,26.15
2023-01-23T13:24:11.194Z,26.80
2023-01-23T13:26:41.640Z,27.52
2023-01-23T13:29:51.442Z,26.45
2023-01-23T13:32:25.415Z,30.10
2023-01-23T13:34:55.821Z,27.00
2023-01-23T13:37:31.386Z,29.48
2023-01-23T13:40:23.445Z,29.50
2023-01-23T13:42:54.455Z,29.50
2023-01-23T13:45:32.074Z,31.17
2023-01-23T14:20:22.743Z,34.42
2023-01-23T14:22:57.899Z,33.78
2023-01-23T14:25:28.255Z,34.60
2023-01-23T14:28:08.723Z,35.60
2023-01-23T14:30:39.012Z,34.83
2023-01-23T14:33:20.386Z,35.38
2023-01-23T14:35:51.315Z,33.55
2023-01-23T14:38:29.784Z,34.45
2023-01-23T14:41:00.683Z,33.60
2023-01-23T14:43:32.233Z,35.28
2023-01-23T14:48:43.574Z,33.42
2023-01-23T14:51:22.541Z,35.53
2023-01-23T14:54:23.306Z,36.10
2023-01-23T14:56:55.457Z,35.40
2023-01-23T14:59:40.171Z,35.85
2023-01-23T15:02:33.547Z,34.55
2023-01-23T15:05:15.780Z,36.80
2023-01-23T15:08:03.582Z,37.65
2023-01-23T15:10:49.827Z,37.35
2023-01-23T15:13:26.918Z,37.65
2023-01-23T15:16:06.396Z,36.83
2023-01-23T15:18:38.399Z,36.63
2023-01-23T15:21:10.815Z,36.35
2023-01-23T15:23:42.970Z,37.10
2023-01-23T15:26:36.434Z,36.10
2023-01-23T15:29:22.017Z,37.78
2023-01-23T15:31:54.424Z,37.88
2023-01-23T15:34:36.402Z,38.55
2023-01-23T15:37:12.771Z,38.92
2023-01-23T15:39:56.391Z,37.22
2023-01-23T15:42:31.331Z,39.42
2023-01-23T15:45:05.975Z,38.50
2023-01-23T15:47:37.585Z,40.90
2023-01-23T15:50:08.227Z,39.20
2023-01-23T15:52:49.024Z,38.70
2023-01-23T15:55:19.527Z,39.20
2023-01-23T15:57:49.682Z,39.70
2023-01-23T16:00:22.881Z,39.60
2023-01-23T16:02:57.701Z,39.67
2023-01-23T16:05:34.432Z,41.08
2023-01-23T16:08:05.529Z,39.00
2023-01-23T16:10:41.437Z,39.50
2023-01-23T16:13:16.258Z,38.55
2023-01-23T16:15:46.515Z,39.10
2023-01-23T16:18:16.870Z,39.00
2023-01-23T16:20:49.058Z,39.22
2023-01-23T16:23:31.177Z,39.80
2023-01-23T16:26:06.243Z,40.92
2023-01-23T16:28:36.436Z,38.53
2023-01-23T16:31:06.607Z,37.78
2023-01-23T16:33:36.812Z,39.05
2023-01-23T16:36:08.796Z,39.92
2023-01-23T16:38:39.023Z,40.50
2023-01-23T16:41:11.891Z,39.87
2023-01-23T16:43:42.918Z,39.65
2023-01-23T16:46:13.922Z,40.83
2023-01-23T16:48:44.082Z,41.58
2023-01-23T16:51:23.939Z,40.05
2023-01-23T16:54:05.954Z,40.65
2023-01-23T16:56:45.144Z,40.50
2023-01-23T16:59:20.949Z,41.45
2023-01-23T17:01:53.846Z,40.60
2023-01-23T17:04:24.906Z,41.15
2023-01-23T17:06:55.051Z,39.17
2023-01-23T17:09:25.120Z,39.42
2023-01-23T17:11:59.683Z,40.42
2023-01-23T17:14:33.812Z,41.95
2023-01-23T17:17:12.627Z,42.53
2023-01-23T17:19:44.345Z,43.13
2023-01-23T17:22:37.278Z,44.67
2023-01-23T17:25:19.794Z,41.97
2023-01-23T17:28:06.982Z,45.50
2023-01-23T17:30:42.274Z,42.47
2023-01-23T17:33:25.476Z,45.45
2023-01-23T17:35:56.652Z,44.45
2023-01-23T17:38:33.136Z,44.78
2023-01-23T17:41:03.932Z,45.17
2023-01-23T17:43:34.115Z,43.80
2023-01-23T17:46:04.446Z,44.15
2023-01-23T17:48:39.292Z,44.97
2023-01-23T17:51:18.835Z,45.55
2023-01-23T17:56:34.933Z,46.47
2023-01-23T17:59:04.985Z,44.05
2023-01-23T18:01:34.956Z,45.83
2023-01-23T18:04:05.098Z,44.97
2023-01-23T18:06:35.284Z,45.45
2023-01-23T18:09:05.432Z,46.50
2023-01-23T18:11:35.938Z,44.17
2023-01-23T18:14:54.132Z,45.57
2023-01-23T18:17:56.527Z,44.85
2023-01-23T18:20:27.637Z,48.13
2023-01-23T18:22:58.833Z,45.80
2023-01-23T18:25:29.713Z,45.58
2023-01-23T18:28:08.113Z,47.25
2023-01-23T18:30:44.183Z,47.17
2023-01-23T18:33:29.301Z,47.40
2023-01-23T18:36:31.407Z,47.45
2023-01-23T18:39:12.012Z,46.83
2023-01-23T18:41:52.657Z,46.67
2023-01-23T18:44:29.240Z,47.30
2023-01-23T18:46:59.538Z,47.45
2023-01-23T18:49:33.003Z,46.72
2023-01-23T18:52:03.884Z,47.60
2023-01-23T18:54:46.853Z,47.97
2023-01-23T18:57:49.813Z,48.75
2023-01-23T19:00:47.089Z,47.22
2023-01-23T19:03:19.911Z,48.40
2023-01-23T19:05:50.307Z,48.65
2023-01-23T19:08:33.882Z,51.05
2023-01-23T19:11:11.478Z,50.25
2023-01-23T19:13:54.131Z,50.25
2023-01-23T19:16:32.616Z,50.25
2023-01-23T19:19:25.751Z,49.40
2023-01-23T19:21:56.080Z,50.78
2023-01-23T19:24:27.671Z,50.03
2023-01-23T19:26:58.785Z,51.25
2023-01-23T19:29:29.034Z,51.97
2023-01-23T19:32:05.147Z,52.00
2023-01-23T19:34:36.592Z,51.78
2023-01-23T19:37:07.191Z,50.53
2023-01-23T19:39:37.197Z,50.65
2023-01-23T19:42:07.489Z,51.75
2023-01-23T19:44:37.409Z,52.45
2023-01-23T19:47:08.919Z,51.28
2023-01-23T19:49:39.137Z,51.70
2023-01-23T19:52:09.302Z,51.63
2023-01-23T19:54:39.189Z,52.30
2023-01-23T19:57:09.555Z,51.40
2023-01-23T19:59:39.688Z,52.17
2023-01-23T20:02:22.882Z,52.63
2023-01-23T20:04:54.722Z,53.53
2023-01-23T20:07:24.976Z,52.53
2023-01-23T20:09:55.155Z,52.03
2023-01-23T20:12:25.114Z,51.25
2023-01-23T20:14:55.242Z,52.60
2023-01-23T20:17:25.631Z,51.33
2023-01-23T20:19:55.759Z,51.92
2023-01-23T20:22:25.663Z,53.63
2023-01-23T20:24:55.486Z,54.05
2023-01-23T20:27:25.584Z,53.97
2023-01-23T20:29:55.617Z,51.55
2023-01-23T20:32:25.712Z,52.95
2023-01-23T20:34:57.644Z,53.05
2023-01-23T20:37:28.650Z,55.60
2023-01-23T20:39:58.786Z,51.38
2023-01-23T20:42:28.741Z,52.40
2023-01-23T20:44:58.774Z,55.25
2023-01-23T20:47:29.540Z,50.28
2023-01-23T20:49:59.622Z,52.55
2023-01-23T20:52:47.690Z,55.08
2023-01-23T20:55:17.888Z,52.60
2023-01-23T20:58:06.079Z,52.42
2023-01-23T21:00:36.085Z,52.97
2023-01-23T21:03:06.204Z,52.42
2023-01-23T21:05:36.233Z,54.55
2023-01-23T21:08:06.146Z,53.60
2023-01-23T21:10:36.060Z,54.53
2023-01-23T21:13:06.071Z,54.03
2023-01-23T21:15:35.934Z,53.05
2023-01-23T21:18:05.929Z,49.88
2023-01-23T21:20:35.977Z,50.35
2023-01-23T21:23:05.931Z,52.72
2023-01-23T21:25:38.095Z,51.92
2023-01-23T21:28:08.193Z,51.75
2023-01-23T21:30:41.085Z,55.90
2023-01-23T21:33:11.204Z,52.75
2023-01-23T21:35:41.264Z,53.17
2023-01-23T21:38:11.086Z,53.35
2023-01-23T21:40:40.997Z,52.53
2023-01-23T21:43:10.977Z,53.58
2023-01-23T21:45:40.935Z,54.30
2023-01-23T21:48:10.909Z,54.97
2023-01-23T21:50:40.819Z,54.28
2023-01-23T21:53:10.739Z,53.50
2023-01-23T21:55:40.649Z,53.35
2023-01-23T21:58:10.705Z,55.58
2023-01-23T22:00:58.962Z,53.25
2023-01-23T22:03:29.043Z,52.22
2023-01-23T22:06:01.894Z,54.75
2023-01-23T22:08:31.883Z,55.13
2023-01-23T22:11:01.760Z,53.70
2023-01-23T22:13:31.914Z,55.60
2023-01-23T22:16:02.627Z,54.00
2023-01-23T22:18:33.427Z,54.95
2023-01-23T22:21:06.310Z,54.83
2023-01-23T22:23:36.870Z,53.05
2023-01-23T22:26:09.613Z,54.35
2023-01-23T22:28:39.744Z,54.28
2023-01-23T22:31:13.087Z,55.85
2023-01-23T22:33:46.048Z,56.15
2023-01-23T22:36:20.008Z,55.42
2023-01-23T22:38:54.448Z,57.30
2023-01-23T22:41:25.384Z,55.00
2023-01-23T22:44:01.425Z,55.05
2023-01-23T22:46:31.769Z,55.47
2023-01-23T22:49:01.974Z,55.63
2023-01-23T22:54:08.305Z,62.83
2023-01-23T22:56:38.590Z,63.13
2023-01-23T22:59:08.735Z,63.60
2023-01-23T23:01:38.809Z,65.13
2023-01-23T23:04:08.675Z,67.53
2023-01-23T23:06:38.643Z,64.70
2023-01-23T23:09:08.748Z,66.68
2023-01-23T23:11:39.585Z,62.35
2023-01-23T23:14:09.707Z,62.13
2023-01-23T23:16:39.636Z,62.67
2023-01-23T23:19:09.519Z,61.42
2023-01-23T23:21:40.458Z,61.78
2023-01-23T23:24:14.707Z,62.70
2023-01-23T23:26:44.877Z,63.30
2023-01-23T23:29:14.715Z,62.20
2023-01-23T23:31:44.944Z,62.05
2023-01-23T23:34:15.093Z,60.65
2023-01-23T23:36:45.291Z,62.53
2023-01-23T23:39:15.835Z,61.88
2023-01-23T23:41:45.901Z,64.22
2023-01-23T23:44:15.880Z,62.83
2023-01-23T23:46:45.847Z,65.70
2023-01-23T23:49:15.809Z,64.18
2023-01-23T23:51:45.720Z,62.20
2023-01-23T23:54:15.613Z,61.78
2023-01-23T23:56:45.817Z,63.92
2023-01-23T23:59:19.531Z,63.95
